sensor_id;sensor_type;location;lat;lon;timestamp;pressure;altitude;pressure_sealevel;temperature;humidity
12897;BME280;6516;35.028;32.372;2022-08-03T00:02:15;98977.03;;;24.13;77.22
12897;BME280;6516;35.028;32.372;2022-08-03T00:04:43;98979.63;;;24.71;73.49
12897;BME280;6516;35.028;32.372;2022-08-03T00:07:13;98976.84;;;25.00;71.58
12897;BME280;6516;35.028;32.372;2022-08-03T00:09:40;98976.47;;;24.57;73.37
12897;BME280;6516;35.028;32.372;2022-08-03T00:12:08;98979.06;;;24.39;73.77
12897;BME280;6516;35.028;32.372;2022-08-03T00:14:36;98977.34;;;24.10;73.65
12897;BME280;6516;35.028;32.372;2022-08-03T00:17:04;98973.88;;;23.89;73.77
12897;BME280;6516;35.028;32.372;2022-08-03T00:19:32;98982.34;;;23.75;73.09
12897;BME280;6516;35.028;32.372;2022-08-03T00:22:00;98984.81;;;23.57;73.58
12897;BME280;6516;35.028;32.372;2022-08-03T00:24:30;98976.94;;;24.43;70.38
12897;BME280;6516;35.028;32.372;2022-08-03T00:26:58;98979.31;;;24.74;68.98
12897;BME280;6516;35.028;32.372;2022-08-03T00:29:26;98975.75;;;24.55;68.68
12897;BME280;6516;35.028;32.372;2022-08-03T00:31:54;98982.28;;;24.33;69.97
12897;BME280;6516;35.028;32.372;2022-08-03T00:34:22;98987.81;;;24.22;69.98
12897;BME280;6516;35.028;32.372;2022-08-03T00:36:50;98977.06;;;24.03;70.69
12897;BME280;6516;35.028;32.372;2022-08-03T00:39:18;98974.75;;;23.89;70.95
12897;BME280;6516;35.028;32.372;2022-08-03T00:41:47;98971.03;;;23.71;71.44
12897;BME280;6516;35.028;32.372;2022-08-03T00:44:16;98972.69;;;23.63;71.67
12897;BME280;6516;35.028;32.372;2022-08-03T00:46:44;98970.16;;;23.71;72.31
12897;BME280;6516;35.028;32.372;2022-08-03T00:49:12;98968.28;;;24.58;70.20
12897;BME280;6516;35.028;32.372;2022-08-03T00:51:40;98964.50;;;25.07;67.69
12897;BME280;6516;35.028;32.372;2022-08-03T00:54:09;98962.47;;;24.72;68.91
12897;BME280;6516;35.028;32.372;2022-08-03T00:56:37;98971.97;;;24.57;69.85
12897;BME280;6516;35.028;32.372;2022-08-03T00:59:08;98973.09;;;24.45;71.71
12897;BME280;6516;35.028;32.372;2022-08-03T01:01:37;98974.22;;;24.33;72.97
12897;BME280;6516;35.028;32.372;2022-08-03T01:04:05;98969.41;;;24.27;73.29
12897;BME280;6516;35.028;32.372;2022-08-03T01:06:40;98966.84;;;24.16;74.11
12897;BME280;6516;35.028;32.372;2022-08-03T01:09:18;98969.00;;;24.03;74.12
12897;BME280;6516;35.028;32.372;2022-08-03T01:12:00;98970.28;;;24.66;73.21
12897;BME280;6516;35.028;32.372;2022-08-03T01:14:37;98976.41;;;25.14;72.71
12897;BME280;6516;35.028;32.372;2022-08-03T01:17:12;98967.59;;;25.12;72.19
12897;BME280;6516;35.028;32.372;2022-08-03T01:19:48;98970.38;;;24.83;71.55
12897;BME280;6516;35.028;32.372;2022-08-03T01:22:49;98966.84;;;24.64;71.74
12897;BME280;6516;35.028;32.372;2022-08-03T01:25:33;98976.19;;;24.41;73.23
12897;BME280;6516;35.028;32.372;2022-08-03T01:28:21;98973.09;;;24.17;75.51
12897;BME280;6516;35.028;32.372;2022-08-03T01:31:03;98965.47;;;24.12;76.21
12897;BME280;6516;35.028;32.372;2022-08-03T01:33:35;98974.38;;;24.03;76.47
12897;BME280;6516;35.028;32.372;2022-08-03T01:36:10;98977.47;;;24.75;75.03
12897;BME280;6516;35.028;32.372;2022-08-03T01:38:42;98975.56;;;25.04;74.70
12897;BME280;6516;35.028;32.372;2022-08-03T01:41:20;98980.28;;;24.92;74.81
12897;BME280;6516;35.028;32.372;2022-08-03T01:43:50;98972.66;;;24.78;75.71
12897;BME280;6516;35.028;32.372;2022-08-03T01:46:22;98987.28;;;24.66;77.57
12897;BME280;6516;35.028;32.372;2022-08-03T01:48:52;98979.91;;;24.49;79.41
12897;BME280;6516;35.028;32.372;2022-08-03T01:51:22;98977.63;;;24.35;78.53
12897;BME280;6516;35.028;32.372;2022-08-03T01:53:51;98985.97;;;24.13;78.06
12897;BME280;6516;35.028;32.372;2022-08-03T01:56:22;98981.84;;;24.00;80.41
12897;BME280;6516;35.028;32.372;2022-08-03T01:58:52;98977.72;;;23.96;82.45
12897;BME280;6516;35.028;32.372;2022-08-03T02:01:23;98984.06;;;23.85;82.46
12897;BME280;6516;35.028;32.372;2022-08-03T02:03:52;98980.16;;;24.46;80.16
12897;BME280;6516;35.028;32.372;2022-08-03T02:06:21;98982.41;;;24.98;78.50
12897;BME280;6516;35.028;32.372;2022-08-03T02:08:53;98992.38;;;24.79;78.58
12897;BME280;6516;35.028;32.372;2022-08-03T02:11:22;98985.28;;;24.68;80.03
12897;BME280;6516;35.028;32.372;2022-08-03T02:13:50;98979.31;;;24.55;83.04
12897;BME280;6516;35.028;32.372;2022-08-03T02:16:23;98983.84;;;24.45;82.83
12897;BME280;6516;35.028;32.372;2022-08-03T02:18:51;98998.16;;;24.36;83.75
12897;BME280;6516;35.028;32.372;2022-08-03T02:21:22;99000.72;;;24.28;85.03
12897;BME280;6516;35.028;32.372;2022-08-03T02:23:50;98995.16;;;24.20;85.37
12897;BME280;6516;35.028;32.372;2022-08-03T02:26:19;98994.03;;;24.23;86.38
12897;BME280;6516;35.028;32.372;2022-08-03T02:28:51;99000.97;;;24.54;85.49
12897;BME280;6516;35.028;32.372;2022-08-03T02:31:25;98998.84;;;24.86;82.52
12897;BME280;6516;35.028;32.372;2022-08-03T02:34:00;99002.59;;;24.75;83.06
12897;BME280;6516;35.028;32.372;2022-08-03T02:36:33;99011.34;;;24.58;83.42
12897;BME280;6516;35.028;32.372;2022-08-03T02:39:04;99001.69;;;24.46;83.44
12897;BME280;6516;35.028;32.372;2022-08-03T02:41:39;99003.97;;;24.32;84.08
12897;BME280;6516;35.028;32.372;2022-08-03T02:44:10;99004.97;;;24.21;84.57
12897;BME280;6516;35.028;32.372;2022-08-03T02:46:43;99015.84;;;24.10;84.25
12897;BME280;6516;35.028;32.372;2022-08-03T02:49:13;99012.56;;;23.97;84.00
12897;BME280;6516;35.028;32.372;2022-08-03T02:51:44;99021.66;;;24.34;83.07
12897;BME280;6516;35.028;32.372;2022-08-03T02:54:15;99021.84;;;24.71;83.28
12897;BME280;6516;35.028;32.372;2022-08-03T02:56:45;99020.16;;;24.70;82.00
12897;BME280;6516;35.028;32.372;2022-08-03T02:59:17;99030.31;;;24.57;82.02
12897;BME280;6516;35.028;32.372;2022-08-03T03:01:46;99023.81;;;24.40;83.71
12897;BME280;6516;35.028;32.372;2022-08-03T03:04:15;99027.19;;;24.23;84.97
12897;BME280;6516;35.028;32.372;2022-08-03T03:06:44;99022.22;;;24.09;86.30
12897;BME280;6516;35.028;32.372;2022-08-03T03:09:12;99022.19;;;24.00;86.63
12897;BME280;6516;35.028;32.372;2022-08-03T03:11:40;99028.25;;;23.92;87.43
12897;BME280;6516;35.028;32.372;2022-08-03T03:14:10;99030.13;;;24.01;88.86
12897;BME280;6516;35.028;32.372;2022-08-03T03:16:40;99037.00;;;24.81;84.64
12897;BME280;6516;35.028;32.372;2022-08-03T03:19:11;99033.28;;;25.01;79.16
12897;BME280;6516;35.028;32.372;2022-08-03T03:21:41;99033.72;;;24.49;80.23
12897;BME280;6516;35.028;32.372;2022-08-03T03:24:09;99037.38;;;24.29;81.80
12897;BME280;6516;35.028;32.372;2022-08-03T03:26:38;99039.78;;;24.13;82.87
12897;BME280;6516;35.028;32.372;2022-08-03T03:29:06;99041.56;;;23.94;84.24
12897;BME280;6516;35.028;32.372;2022-08-03T03:31:34;99042.94;;;23.88;83.91
12897;BME280;6516;35.028;32.372;2022-08-03T03:34:02;99049.13;;;23.79;83.13
12897;BME280;6516;35.028;32.372;2022-08-03T03:36:32;99038.81;;;24.52;80.96
12897;BME280;6516;35.028;32.372;2022-08-03T03:39:01;99043.31;;;25.18;77.09
12897;BME280;6516;35.028;32.372;2022-08-03T03:41:29;99050.44;;;24.91;75.54
12897;BME280;6516;35.028;32.372;2022-08-03T03:43:57;99048.19;;;24.77;75.97
12897;BME280;6516;35.028;32.372;2022-08-03T03:46:25;99052.53;;;24.59;75.30
12897;BME280;6516;35.028;32.372;2022-08-03T03:48:53;99054.69;;;24.46;73.48
12897;BME280;6516;35.028;32.372;2022-08-03T03:51:21;99054.25;;;24.41;73.81
12897;BME280;6516;35.028;32.372;2022-08-03T03:53:57;99047.16;;;24.40;73.18
12897;BME280;6516;35.028;32.372;2022-08-03T03:56:27;99058.06;;;24.38;72.54
12897;BME280;6516;35.028;32.372;2022-08-03T03:58:55;99056.94;;;24.41;72.36
12897;BME280;6516;35.028;32.372;2022-08-03T04:01:23;99055.53;;;24.46;72.82
12897;BME280;6516;35.028;32.372;2022-08-03T04:03:52;99047.88;;;24.51;72.72
12897;BME280;6516;35.028;32.372;2022-08-03T04:06:20;99055.13;;;24.60;72.72
12897;BME280;6516;35.028;32.372;2022-08-03T04:09:07;99046.94;;;24.71;72.40
12897;BME280;6516;35.028;32.372;2022-08-03T04:11:57;99054.72;;;24.84;72.22
12897;BME280;6516;35.028;32.372;2022-08-03T04:14:32;99050.03;;;24.95;71.85
12897;BME280;6516;35.028;32.372;2022-08-03T04:17:03;99046.75;;;25.11;71.35
12897;BME280;6516;35.028;32.372;2022-08-03T04:19:36;99045.16;;;25.27;71.63
12897;BME280;6516;35.028;32.372;2022-08-03T04:22:10;99043.41;;;25.45;71.73
12897;BME280;6516;35.028;32.372;2022-08-03T04:24:45;99049.84;;;25.71;71.76
12897;BME280;6516;35.028;32.372;2022-08-03T04:27:18;99048.97;;;26.07;71.34
12897;BME280;6516;35.028;32.372;2022-08-03T04:29:51;99041.63;;;26.62;69.79
12897;BME280;6516;35.028;32.372;2022-08-03T04:32:20;99043.25;;;27.33;66.05
12897;BME280;6516;35.028;32.372;2022-08-03T04:34:53;99042.78;;;28.05;63.82
12897;BME280;6516;35.028;32.372;2022-08-03T04:37:27;99046.00;;;28.58;63.18
12897;BME280;6516;35.028;32.372;2022-08-03T04:40:06;99044.84;;;28.92;59.35
12897;BME280;6516;35.028;32.372;2022-08-03T04:42:36;99051.13;;;29.09;59.24
12897;BME280;6516;35.028;32.372;2022-08-03T04:45:06;99048.25;;;29.10;58.99
12897;BME280;6516;35.028;32.372;2022-08-03T04:47:37;99052.16;;;29.16;59.52
12897;BME280;6516;35.028;32.372;2022-08-03T04:50:06;99041.66;;;29.21;59.11
12897;BME280;6516;35.028;32.372;2022-08-03T04:52:35;99050.94;;;29.34;59.41
12897;BME280;6516;35.028;32.372;2022-08-03T04:55:06;99047.19;;;29.59;57.54
12897;BME280;6516;35.028;32.372;2022-08-03T04:57:34;99044.53;;;29.90;55.29
12897;BME280;6516;35.028;32.372;2022-08-03T05:00:03;99043.31;;;30.39;53.76
12897;BME280;6516;35.028;32.372;2022-08-03T05:02:31;99043.81;;;31.10;53.56
12897;BME280;6516;35.028;32.372;2022-08-03T05:04:59;99042.91;;;31.54;51.87
12897;BME280;6516;35.028;32.372;2022-08-03T05:07:27;99040.84;;;32.14;50.47
12897;BME280;6516;35.028;32.372;2022-08-03T05:09:55;99037.25;;;32.64;48.49
12897;BME280;6516;35.028;32.372;2022-08-03T05:12:25;99038.97;;;32.86;50.65
12897;BME280;6516;35.028;32.372;2022-08-03T05:14:52;99037.56;;;33.38;49.66
12897;BME280;6516;35.028;32.372;2022-08-03T05:17:20;99040.72;;;33.35;49.32
12897;BME280;6516;35.028;32.372;2022-08-03T05:19:48;99036.94;;;33.36;49.88
12897;BME280;6516;35.028;32.372;2022-08-03T05:22:16;99045.03;;;33.51;49.54
12897;BME280;6516;35.028;32.372;2022-08-03T05:24:44;99051.25;;;33.72;48.95
12897;BME280;6516;35.028;32.372;2022-08-03T05:27:11;99051.84;;;33.96;47.56
12897;BME280;6516;35.028;32.372;2022-08-03T05:29:45;99054.78;;;33.94;47.63
12897;BME280;6516;35.028;32.372;2022-08-03T05:32:14;99059.59;;;33.64;47.79
12897;BME280;6516;35.028;32.372;2022-08-03T05:34:43;99057.09;;;33.69;47.66
12897;BME280;6516;35.028;32.372;2022-08-03T05:37:11;99062.69;;;33.83;45.88
12897;BME280;6516;35.028;32.372;2022-08-03T05:39:39;99068.91;;;33.70;47.02
12897;BME280;6516;35.028;32.372;2022-08-03T05:42:07;99066.41;;;33.75;47.55
12897;BME280;6516;35.028;32.372;2022-08-03T05:44:35;99066.41;;;33.75;47.50
12897;BME280;6516;35.028;32.372;2022-08-03T05:47:05;99071.66;;;33.77;47.91
12897;BME280;6516;35.028;32.372;2022-08-03T05:49:33;99071.38;;;33.65;47.73
12897;BME280;6516;35.028;32.372;2022-08-03T05:52:01;99079.00;;;33.76;47.18
12897;BME280;6516;35.028;32.372;2022-08-03T05:54:29;99076.41;;;33.89;47.24
12897;BME280;6516;35.028;32.372;2022-08-03T05:56:57;99077.13;;;34.11;46.12
12897;BME280;6516;35.028;32.372;2022-08-03T05:59:24;99077.13;;;34.11;46.56
12897;BME280;6516;35.028;32.372;2022-08-03T06:01:53;99078.84;;;34.18;45.73
12897;BME280;6516;35.028;32.372;2022-08-03T06:04:22;99086.84;;;34.20;46.23
12897;BME280;6516;35.028;32.372;2022-08-03T06:06:50;99084.47;;;34.44;46.70
12897;BME280;6516;35.028;32.372;2022-08-03T06:09:18;99080.25;;;34.42;46.24
12897;BME280;6516;35.028;32.372;2022-08-03T06:11:46;99085.84;;;34.74;45.76
12897;BME280;6516;35.028;32.372;2022-08-03T06:14:14;99084.47;;;34.91;44.79
12897;BME280;6516;35.028;32.372;2022-08-03T06:16:42;99087.63;;;35.08;45.34
12897;BME280;6516;35.028;32.372;2022-08-03T06:19:10;99086.00;;;35.33;44.33
12897;BME280;6516;35.028;32.372;2022-08-03T06:21:39;99083.03;;;35.41;44.48
12897;BME280;6516;35.028;32.372;2022-08-03T06:24:07;99088.94;;;35.38;44.13
12897;BME280;6516;35.028;32.372;2022-08-03T06:26:35;99093.13;;;35.27;44.52
12897;BME280;6516;35.028;32.372;2022-08-03T06:29:03;99098.16;;;35.17;44.86
12897;BME280;6516;35.028;32.372;2022-08-03T06:31:31;99092.91;;;35.09;45.34
12897;BME280;6516;35.028;32.372;2022-08-03T06:33:59;99106.59;;;35.03;45.88
12897;BME280;6516;35.028;32.372;2022-08-03T06:36:30;99106.94;;;34.80;45.44
12897;BME280;6516;35.028;32.372;2022-08-03T06:39:00;99106.34;;;34.44;45.64
12897;BME280;6516;35.028;32.372;2022-08-03T06:41:28;99108.25;;;34.37;47.35
12897;BME280;6516;35.028;32.372;2022-08-03T06:43:56;99110.38;;;34.48;46.97
12897;BME280;6516;35.028;32.372;2022-08-03T06:46:24;99116.22;;;34.32;46.24
12897;BME280;6516;35.028;32.372;2022-08-03T06:48:51;99113.03;;;34.35;47.03
12897;BME280;6516;35.028;32.372;2022-08-03T06:51:21;99122.91;;;34.30;46.68
12897;BME280;6516;35.028;32.372;2022-08-03T06:53:49;99121.53;;;34.53;45.35
12897;BME280;6516;35.028;32.372;2022-08-03T06:56:18;99118.69;;;34.74;44.59
12897;BME280;6516;35.028;32.372;2022-08-03T06:58:46;99127.97;;;34.80;44.06
12897;BME280;6516;35.028;32.372;2022-08-03T07:01:14;99130.13;;;34.91;43.12
12897;BME280;6516;35.028;32.372;2022-08-03T07:03:42;99133.91;;;34.90;44.11
12897;BME280;6516;35.028;32.372;2022-08-03T07:06:10;99132.25;;;35.02;43.16
12897;BME280;6516;35.028;32.372;2022-08-03T07:08:38;99126.59;;;35.10;44.21
12897;BME280;6516;35.028;32.372;2022-08-03T07:11:06;99132.13;;;35.29;43.48
12897;BME280;6516;35.028;32.372;2022-08-03T07:13:35;99132.13;;;35.29;42.12
12897;BME280;6516;35.028;32.372;2022-08-03T07:16:03;99138.66;;;35.54;41.48
12897;BME280;6516;35.028;32.372;2022-08-03T07:18:31;99139.31;;;35.69;43.20
12897;BME280;6516;35.028;32.372;2022-08-03T07:20:59;99135.94;;;35.93;43.11
12897;BME280;6516;35.028;32.372;2022-08-03T07:23:27;99140.75;;;36.11;43.09
12897;BME280;6516;35.028;32.372;2022-08-03T07:25:55;99129.56;;;36.32;42.26
12897;BME280;6516;35.028;32.372;2022-08-03T07:28:23;99128.66;;;36.44;42.84
12897;BME280;6516;35.028;32.372;2022-08-03T07:30:52;99142.03;;;36.21;42.19
12897;BME280;6516;35.028;32.372;2022-08-03T07:33:20;99146.69;;;36.27;43.38
12897;BME280;6516;35.028;32.372;2022-08-03T07:35:48;99131.91;;;36.15;42.08
12897;BME280;6516;35.028;32.372;2022-08-03T07:38:16;99140.75;;;36.04;43.60
12897;BME280;6516;35.028;32.372;2022-08-03T07:40:44;99144.53;;;36.29;42.78
12897;BME280;6516;35.028;32.372;2022-08-03T07:43:12;99142.81;;;36.48;42.94
12897;BME280;6516;35.028;32.372;2022-08-03T07:45:40;99149.28;;;36.66;42.72
12897;BME280;6516;35.028;32.372;2022-08-03T07:48:09;99138.88;;;36.81;43.38
12897;BME280;6516;35.028;32.372;2022-08-03T07:50:37;99145.53;;;36.98;43.24
12897;BME280;6516;35.028;32.372;2022-08-03T07:53:05;99148.00;;;37.19;42.14
12897;BME280;6516;35.028;32.372;2022-08-03T07:55:33;99147.72;;;37.27;42.88
12897;BME280;6516;35.028;32.372;2022-08-03T07:58:03;99149.31;;;37.41;43.17
12897;BME280;6516;35.028;32.372;2022-08-03T08:00:32;99142.22;;;37.58;42.28
12897;BME280;6516;35.028;32.372;2022-08-03T08:03:00;99136.66;;;37.65;41.76
12897;BME280;6516;35.028;32.372;2022-08-03T08:05:29;99144.69;;;37.66;42.44
12897;BME280;6516;35.028;32.372;2022-08-03T08:07:58;99137.97;;;37.62;42.19
12897;BME280;6516;35.028;32.372;2022-08-03T08:10:27;99144.03;;;37.71;42.29
12897;BME280;6516;35.028;32.372;2022-08-03T08:12:55;99145.09;;;37.70;42.13
12897;BME280;6516;35.028;32.372;2022-08-03T08:15:23;99144.16;;;37.82;42.03
12897;BME280;6516;35.028;32.372;2022-08-03T08:17:53;99141.28;;;37.95;42.04
12897;BME280;6516;35.028;32.372;2022-08-03T08:20:23;99137.66;;;38.01;41.62
12897;BME280;6516;35.028;32.372;2022-08-03T08:22:54;99137.94;;;37.87;42.25
12897;BME280;6516;35.028;32.372;2022-08-03T08:25:22;99151.38;;;38.01;41.55
12897;BME280;6516;35.028;32.372;2022-08-03T08:27:51;99140.41;;;38.19;41.62
12897;BME280;6516;35.028;32.372;2022-08-03T08:30:20;99139.66;;;38.30;41.55
12897;BME280;6516;35.028;32.372;2022-08-03T08:32:49;99149.00;;;38.47;41.41
12897;BME280;6516;35.028;32.372;2022-08-03T08:35:18;99140.75;;;38.65;41.03
12897;BME280;6516;35.028;32.372;2022-08-03T08:37:46;99141.97;;;38.69;40.63
12897;BME280;6516;35.028;32.372;2022-08-03T08:40:15;99142.66;;;38.47;40.72
12897;BME280;6516;35.028;32.372;2022-08-03T08:42:44;99142.84;;;38.09;42.21
12897;BME280;6516;35.028;32.372;2022-08-03T08:45:12;99146.91;;;38.07;43.13
12897;BME280;6516;35.028;32.372;2022-08-03T08:47:44;99143.69;;;38.28;42.46
12897;BME280;6516;35.028;32.372;2022-08-03T08:50:13;99152.69;;;38.59;41.65
12897;BME280;6516;35.028;32.372;2022-08-03T08:52:46;99158.53;;;38.81;41.40
12897;BME280;6516;35.028;32.372;2022-08-03T08:55:19;99158.69;;;39.04;40.35
12897;BME280;6516;35.028;32.372;2022-08-03T08:57:49;99160.09;;;38.95;39.72
12897;BME280;6516;35.028;32.372;2022-08-03T09:00:19;99156.75;;;38.93;40.55
12897;BME280;6516;35.028;32.372;2022-08-03T09:02:47;99153.53;;;39.07;40.12
12897;BME280;6516;35.028;32.372;2022-08-03T09:05:16;99149.06;;;39.24;39.50
12897;BME280;6516;35.028;32.372;2022-08-03T09:07:45;99153.22;;;39.15;39.76
12897;BME280;6516;35.028;32.372;2022-08-03T09:10:16;99156.91;;;39.09;40.76
12897;BME280;6516;35.028;32.372;2022-08-03T09:12:48;99160.09;;;38.95;41.31
12897;BME280;6516;35.028;32.372;2022-08-03T09:15:21;99156.56;;;38.88;41.70
12897;BME280;6516;35.028;32.372;2022-08-03T09:17:51;99158.59;;;39.10;41.45
12897;BME280;6516;35.028;32.372;2022-08-03T09:20:20;99156.19;;;39.14;41.10
12897;BME280;6516;35.028;32.372;2022-08-03T09:22:55;99158.22;;;39.07;41.41
12897;BME280;6516;35.028;32.372;2022-08-03T09:25:30;99167.56;;;39.06;41.54
12897;BME280;6516;35.028;32.372;2022-08-03T09:28:07;99160.41;;;39.16;41.96
12897;BME280;6516;35.028;32.372;2022-08-03T09:30:37;99166.78;;;39.17;41.86
12897;BME280;6516;35.028;32.372;2022-08-03T09:33:07;99162.88;;;39.06;42.11
12897;BME280;6516;35.028;32.372;2022-08-03T09:35:41;99158.47;;;39.05;42.11
12897;BME280;6516;35.028;32.372;2022-08-03T09:38:13;99169.06;;;38.90;42.26
12897;BME280;6516;35.028;32.372;2022-08-03T09:40:44;99167.34;;;38.71;42.35
12897;BME280;6516;35.028;32.372;2022-08-03T09:43:12;99179.44;;;38.88;41.97
12897;BME280;6516;35.028;32.372;2022-08-03T09:45:41;99171.31;;;38.93;41.71
12897;BME280;6516;35.028;32.372;2022-08-03T09:48:23;99166.84;;;39.10;41.59
12897;BME280;6516;35.028;32.372;2022-08-03T09:50:53;99165.59;;;39.24;41.63
12897;BME280;6516;35.028;32.372;2022-08-03T09:53:22;99175.03;;;39.46;41.16
12897;BME280;6516;35.028;32.372;2022-08-03T09:55:56;99169.09;;;39.61;39.96
12897;BME280;6516;35.028;32.372;2022-08-03T09:58:26;99169.31;;;39.59;39.86
12897;BME280;6516;35.028;32.372;2022-08-03T10:00:57;99168.72;;;39.57;38.90
12897;BME280;6516;35.028;32.372;2022-08-03T10:03:27;99163.78;;;39.48;39.02
12897;BME280;6516;35.028;32.372;2022-08-03T10:05:57;99167.03;;;38.97;39.97
12897;BME280;6516;35.028;32.372;2022-08-03T10:08:25;99160.53;;;38.74;40.86
12897;BME280;6516;35.028;32.372;2022-08-03T10:10:54;99164.75;;;38.76;40.70
12897;BME280;6516;35.028;32.372;2022-08-03T10:13:23;99159.22;;;37.98;42.21
12897;BME280;6516;35.028;32.372;2022-08-03T10:15:51;99157.50;;;38.03;42.19
12897;BME280;6516;35.028;32.372;2022-08-03T10:18:19;99148.72;;;37.88;42.74
12897;BME280;6516;35.028;32.372;2022-08-03T10:20:50;99146.31;;;37.74;42.87
12897;BME280;6516;35.028;32.372;2022-08-03T10:23:20;99153.78;;;37.91;42.80
12897;BME280;6516;35.028;32.372;2022-08-03T10:25:53;99157.25;;;37.80;42.90
12897;BME280;6516;35.028;32.372;2022-08-03T10:28:33;99146.19;;;37.87;42.94
12897;BME280;6516;35.028;32.372;2022-08-03T10:31:04;99145.22;;;37.81;43.39
12897;BME280;6516;35.028;32.372;2022-08-03T10:33:36;99141.19;;;37.84;43.02
12897;BME280;6516;35.028;32.372;2022-08-03T10:36:07;99138.69;;;38.00;42.55
12897;BME280;6516;35.028;32.372;2022-08-03T10:38:37;99134.81;;;38.08;42.79
12897;BME280;6516;35.028;32.372;2022-08-03T10:41:13;99134.94;;;37.70;43.26
12897;BME280;6516;35.028;32.372;2022-08-03T10:43:46;99141.34;;;37.64;43.42
12897;BME280;6516;35.028;32.372;2022-08-03T10:46:18;99133.81;;;37.47;43.62
12897;BME280;6516;35.028;32.372;2022-08-03T10:48:48;99144.44;;;37.43;43.86
12897;BME280;6516;35.028;32.372;2022-08-03T10:51:18;99137.34;;;37.29;44.14
12897;BME280;6516;35.028;32.372;2022-08-03T10:53:46;99138.38;;;37.35;43.94
12897;BME280;6516;35.028;32.372;2022-08-03T10:56:40;99133.53;;;37.30;43.84
12897;BME280;6516;35.028;32.372;2022-08-03T10:59:57;99137.00;;;37.19;44.20
12897;BME280;6516;35.028;32.372;2022-08-03T11:05:44;99136.41;;;36.73;44.84
12897;BME280;6516;35.028;32.372;2022-08-03T11:08:33;99137.00;;;37.19;43.99
12897;BME280;6516;35.028;32.372;2022-08-03T11:13:59;99124.53;;;36.79;43.73
12897;BME280;6516;35.028;32.372;2022-08-03T11:16:31;99124.22;;;36.50;44.58
12897;BME280;6516;35.028;32.372;2022-08-03T11:19:01;99124.81;;;36.58;45.08
12897;BME280;6516;35.028;32.372;2022-08-03T11:21:52;99119.41;;;36.45;45.53
12897;BME280;6516;35.028;32.372;2022-08-03T11:24:58;99119.66;;;36.24;45.92
12897;BME280;6516;35.028;32.372;2022-08-03T11:27:30;99124.75;;;36.21;45.25
12897;BME280;6516;35.028;32.372;2022-08-03T11:30:04;99118.34;;;36.40;45.88
12897;BME280;6516;35.028;32.372;2022-08-03T11:32:57;99118.88;;;36.61;45.34
12897;BME280;6516;35.028;32.372;2022-08-03T11:35:27;99130.94;;;36.67;45.58
12897;BME280;6516;35.028;32.372;2022-08-03T11:38:07;99118.84;;;36.81;45.00
12897;BME280;6516;35.028;32.372;2022-08-03T11:40:43;99121.34;;;36.82;44.52
12897;BME280;6516;35.028;32.372;2022-08-03T11:43:44;99120.69;;;36.87;45.01
12897;BME280;6516;35.028;32.372;2022-08-03T11:46:15;99121.19;;;36.77;45.32
12897;BME280;6516;35.028;32.372;2022-08-03T11:48:48;99130.56;;;36.94;44.79
12897;BME280;6516;35.028;32.372;2022-08-03T11:51:21;99120.22;;;36.96;43.70
12897;BME280;6516;35.028;32.372;2022-08-03T11:53:54;99121.53;;;36.87;42.67
12897;BME280;6516;35.028;32.372;2022-08-03T11:56:23;99126.91;;;36.69;44.37
12897;BME280;6516;35.028;32.372;2022-08-03T11:58:52;99118.88;;;36.61;44.06
12897;BME280;6516;35.028;32.372;2022-08-03T12:01:23;99116.66;;;36.89;44.66
12897;BME280;6516;35.028;32.372;2022-08-03T12:03:51;99113.41;;;36.61;44.97
12897;BME280;6516;35.028;32.372;2022-08-03T12:06:19;99119.50;;;36.63;44.28
12897;BME280;6516;35.028;32.372;2022-08-03T12:08:48;99123.31;;;36.62;44.92
12897;BME280;6516;35.028;32.372;2022-08-03T12:11:16;99119.19;;;36.40;44.83
12897;BME280;6516;35.028;32.372;2022-08-03T12:13:45;99120.00;;;36.47;45.21
12897;BME280;6516;35.028;32.372;2022-08-03T12:16:18;99116.94;;;36.11;44.82
12897;BME280;6516;35.028;32.372;2022-08-03T12:18:55;99119.69;;;36.05;45.75
12897;BME280;6516;35.028;32.372;2022-08-03T12:21:24;99118.44;;;35.94;46.24
12897;BME280;6516;35.028;32.372;2022-08-03T12:23:56;99110.00;;;35.89;47.29
12897;BME280;6516;35.028;32.372;2022-08-03T12:26:25;99115.50;;;35.89;46.56
12897;BME280;6516;35.028;32.372;2022-08-03T12:28:53;99117.34;;;36.08;46.58
12897;BME280;6516;35.028;32.372;2022-08-03T12:31:21;99118.88;;;35.72;46.49
12897;BME280;6516;35.028;32.372;2022-08-03T12:33:59;99106.44;;;35.82;45.98
12897;BME280;6516;35.028;32.372;2022-08-03T12:36:29;99109.41;;;35.87;46.35
12897;BME280;6516;35.028;32.372;2022-08-03T12:39:02;99122.44;;;35.72;47.21
12897;BME280;6516;35.028;32.372;2022-08-03T12:41:32;99104.97;;;35.67;47.75
12897;BME280;6516;35.028;32.372;2022-08-03T12:44:01;99100.53;;;35.27;48.05
12897;BME280;6516;35.028;32.372;2022-08-03T12:46:31;99105.38;;;35.31;48.33
12897;BME280;6516;35.028;32.372;2022-08-03T12:49:05;99106.44;;;35.37;48.73
12897;BME280;6516;35.028;32.372;2022-08-03T12:51:36;99106.16;;;35.19;48.71
12897;BME280;6516;35.028;32.372;2022-08-03T12:54:05;99110.59;;;35.20;47.83
12897;BME280;6516;35.028;32.372;2022-08-03T12:56:33;99115.25;;;35.19;49.14
12897;BME280;6516;35.028;32.372;2022-08-03T12:59:22;99116.06;;;35.20;48.50
12897;BME280;6516;35.028;32.372;2022-08-03T13:01:50;99113.81;;;35.30;48.11
12897;BME280;6516;35.028;32.372;2022-08-03T13:04:26;99128.09;;;35.25;48.57
12897;BME280;6516;35.028;32.372;2022-08-03T13:06:59;99116.97;;;35.46;48.01
12897;BME280;6516;35.028;32.372;2022-08-03T13:09:28;99113.38;;;35.52;48.02
12897;BME280;6516;35.028;32.372;2022-08-03T13:12:05;99111.91;;;35.30;48.63
12897;BME280;6516;35.028;32.372;2022-08-03T13:14:34;99104.75;;;35.29;48.94
12897;BME280;6516;35.028;32.372;2022-08-03T13:17:02;99109.38;;;35.35;48.04
12897;BME280;6516;35.028;32.372;2022-08-03T13:19:33;99107.31;;;34.77;48.55
12897;BME280;6516;35.028;32.372;2022-08-03T13:22:06;99107.81;;;35.07;48.96
12897;BME280;6516;35.028;32.372;2022-08-03T13:24:37;99110.34;;;35.02;48.86
12897;BME280;6516;35.028;32.372;2022-08-03T13:27:05;99112.22;;;34.88;49.90